createdAt,value
2017-12-31T00:00:02.717Z,77.30
2017-12-31T00:02:30.193Z,77.10
2017-12-31T00:04:59.158Z,77.60
2017-12-31T00:07:27.106Z,77.00
2017-12-31T00:09:54.607Z,77.30
2017-12-31T00:12:22.112Z,77.40
2017-12-31T00:14:50.050Z,77.70
2017-12-31T00:17:18.272Z,78.40
2017-12-31T00:19:45.746Z,77.60
2017-12-31T00:22:13.640Z,78.00
2017-12-31T00:24:41.812Z,78.20
2017-12-31T00:27:09.269Z,78.50
2017-12-31T00:29:37.336Z,78.50
2017-12-31T00:32:04.880Z,78.90
2017-12-31T00:34:32.361Z,78.90
2017-12-31T00:37:00.735Z,80.70
2017-12-31T00:39:30.203Z,80.20
2017-12-31T00:41:57.890Z,79.40
2017-12-31T00:44:25.345Z,79.40
2017-12-31T00:46:52.816Z,79.50
2017-12-31T00:49:20.873Z,79.60
2017-12-31T00:51:48.526Z,80.00
2017-12-31T00:54:16.613Z,79.90
2017-12-31T00:56:44.871Z,80.20
2017-12-31T00:59:12.365Z,79.60
2017-12-31T01:01:39.828Z,79.80
2017-12-31T01:04:07.380Z,80.10
2017-12-31T01:06:35.601Z,81.30
2017-12-31T01:09:06.808Z,80.60
2017-12-31T01:11:34.517Z,80.00
2017-12-31T01:14:02.496Z,80.00
2017-12-31T01:16:29.989Z,80.80
2017-12-31T01:18:58.256Z,81.20
2017-12-31T01:21:26.934Z,81.00
2017-12-31T01:23:54.376Z,80.40
2017-12-31T01:26:22.382Z,80.70
2017-12-31T01:28:50.696Z,81.50
2017-12-31T01:31:18.524Z,81.10
2017-12-31T01:33:46.430Z,81.50
2017-12-31T01:36:13.905Z,81.70
2017-12-31T01:38:41.873Z,82.20
2017-12-31T01:41:09.343Z,82.20
2017-12-31T01:43:36.787Z,82.20
2017-12-31T01:46:04.281Z,81.60
2017-12-31T01:48:33.227Z,81.70
2017-12-31T01:51:00.992Z,81.10
2017-12-31T01:53:29.074Z,80.10
2017-12-31T01:55:56.530Z,79.80
2017-12-31T01:58:23.988Z,78.00
2017-12-31T02:00:51.470Z,77.40
2017-12-31T02:03:19.684Z,77.70
2017-12-31T02:05:47.161Z,77.00
2017-12-31T02:08:14.632Z,76.70
2017-12-31T02:10:43.837Z,77.60
2017-12-31T02:13:11.288Z,77.10
2017-12-31T02:15:39.318Z,77.70
2017-12-31T02:18:06.794Z,78.10
2017-12-31T02:20:34.525Z,78.60
2017-12-31T02:23:01.997Z,78.80
2017-12-31T02:25:29.952Z,79.30
2017-12-31T02:27:57.421Z,79.80
2017-12-31T02:30:25.220Z,80.20
2017-12-31T02:32:53.428Z,81.30
2017-12-31T02:35:20.886Z,80.50
2017-12-31T02:37:48.430Z,81.20
2017-12-31T02:40:16.717Z,82.80
2017-12-31T02:42:45.135Z,82.90
2017-12-31T02:45:12.924Z,82.20
2017-12-31T02:47:40.793Z,82.70
2017-12-31T02:50:08.971Z,82.90
2017-12-31T02:52:38.157Z,84.00
2017-12-31T02:55:05.627Z,83.40
2017-12-31T02:57:33.084Z,83.50
2017-12-31T03:00:00.550Z,83.60
2017-12-31T03:02:27.997Z,83.80
2017-12-31T03:04:55.954Z,84.40
2017-12-31T03:07:23.409Z,84.00
2017-12-31T03:09:50.880Z,84.30
2017-12-31T03:12:18.426Z,84.20
2017-12-31T03:14:46.289Z,84.40
2017-12-31T03:17:13.748Z,84.40
2017-12-31T03:19:41.664Z,84.40
2017-12-31T03:22:09.121Z,84.50
2017-12-31T03:24:37.347Z,84.60
2017-12-31T03:27:05.314Z,84.50
2017-12-31T03:29:33.209Z,84.40
2017-12-31T03:32:00.640Z,84.40
2017-12-31T03:34:28.312Z,84.60
2017-12-31T03:36:55.765Z,84.60
2017-12-31T03:39:23.426Z,85.00
2017-12-31T03:41:50.876Z,85.10
2017-12-31T03:44:18.693Z,85.10
2017-12-31T03:46:46.236Z,85.30
2017-12-31T03:49:14.875Z,86.00
2017-12-31T03:51:42.356Z,85.50
2017-12-31T03:54:09.803Z,85.70
2017-12-31T03:56:38.751Z,86.40
2017-12-31T03:59:06.448Z,85.90
2017-12-31T04:01:33.904Z,86.00
2017-12-31T04:04:01.357Z,86.00
2017-12-31T04:06:28.895Z,86.20
2017-12-31T04:08:56.395Z,86.30
2017-12-31T04:11:24.603Z,87.40
2017-12-31T04:13:52.077Z,86.30
2017-12-31T04:16:19.772Z,86.40
2017-12-31T04:18:47.637Z,86.30
2017-12-31T04:21:15.096Z,86.30
2017-12-31T04:23:42.578Z,86.20
2017-12-31T04:26:11.134Z,86.70
2017-12-31T04:28:38.630Z,86.00
2017-12-31T04:31:07.336Z,86.80
2017-12-31T04:33:34.781Z,86.10
2017-12-31T04:36:02.238Z,86.20
2017-12-31T04:38:29.955Z,86.40
2017-12-31T04:40:57.409Z,86.40
2017-12-31T04:43:24.857Z,86.70
2017-12-31T04:45:52.391Z,86.70
2017-12-31T04:48:20.491Z,86.70
2017-12-31T04:50:47.956Z,86.70
2017-12-31T04:53:15.405Z,86.60
2017-12-31T04:55:42.929Z,86.80
2017-12-31T04:58:10.364Z,87.10
2017-12-31T05:00:37.852Z,87.30
2017-12-31T05:03:05.562Z,87.10
2017-12-31T05:05:33.000Z,87.10
2017-12-31T05:08:02.008Z,87.80
2017-12-31T05:10:29.974Z,87.20
2017-12-31T05:12:58.196Z,88.20
2017-12-31T05:15:25.820Z,87.50
2017-12-31T05:17:54.463Z,88.60
2017-12-31T05:20:21.949Z,87.80
2017-12-31T05:22:50.204Z,89.10
2017-12-31T05:25:18.984Z,89.60
2017-12-31T05:27:47.057Z,89.00
2017-12-31T05:30:15.145Z,89.20
2017-12-31T05:32:42.585Z,89.60
2017-12-31T05:35:10.453Z,90.00
2017-12-31T05:37:37.899Z,90.10
2017-12-31T05:40:05.348Z,90.20
2017-12-31T05:42:32.836Z,90.40
2017-12-31T05:45:00.277Z,90.60
2017-12-31T05:47:28.364Z,90.60
2017-12-31T05:49:56.317Z,90.70
2017-12-31T05:52:23.832Z,90.70
2017-12-31T05:54:51.304Z,90.90
2017-12-31T05:57:18.765Z,91.10
2017-12-31T05:59:46.217Z,91.10
2017-12-31T06:02:13.749Z,91.20
2017-12-31T06:04:42.956Z,91.60
2017-12-31T06:07:10.457Z,91.30
2017-12-31T06:09:37.912Z,91.30
2017-12-31T06:12:05.517Z,91.30
2017-12-31T06:14:33.348Z,91.40
2017-12-31T06:17:02.308Z,91.80
2017-12-31T06:19:30.039Z,91.40
2017-12-31T06:21:58.331Z,91.70
2017-12-31T06:24:25.815Z,91.40
2017-12-31T06:26:53.929Z,91.50
2017-12-31T06:29:22.775Z,91.70
2017-12-31T06:31:50.228Z,91.40
2017-12-31T06:34:17.712Z,91.40
2017-12-31T06:36:45.148Z,91.40
2017-12-31T06:39:12.641Z,91.40
2017-12-31T06:41:40.108Z,91.40
2017-12-31T06:44:08.521Z,91.60
2017-12-31T06:46:35.975Z,91.40
2017-12-31T06:49:03.869Z,91.30
2017-12-31T06:51:31.540Z,91.40
2017-12-31T06:53:58.981Z,91.40
2017-12-31T06:56:26.893Z,91.40
2017-12-31T06:58:55.130Z,91.60
2017-12-31T07:01:22.592Z,91.30
2017-12-31T07:03:50.074Z,91.40
2017-12-31T07:06:18.676Z,91.40
2017-12-31T07:08:46.133Z,91.10
2017-12-31T07:11:13.576Z,91.20
2017-12-31T07:13:41.851Z,91.40
2017-12-31T07:16:10.352Z,90.90
2017-12-31T07:18:38.155Z,90.50
2017-12-31T07:21:05.632Z,90.40
2017-12-31T07:23:33.758Z,90.40
2017-12-31T07:26:01.861Z,90.60
2017-12-31T07:28:29.842Z,90.20
2017-12-31T07:30:57.801Z,90.10
2017-12-31T07:33:25.561Z,90.00
2017-12-31T07:35:53.029Z,89.80
2017-12-31T07:38:20.477Z,89.60
2017-12-31T07:40:47.959Z,89.40
2017-12-31T07:43:16.204Z,89.50
2017-12-31T07:45:43.898Z,88.90
2017-12-31T07:48:12.808Z,89.40
2017-12-31T07:50:40.207Z,88.80
2017-12-31T07:53:08.091Z,88.60
2017-12-31T07:55:35.592Z,88.70
2017-12-31T07:58:03.036Z,88.90
2017-12-31T08:00:31.260Z,88.50
2017-12-31T08:02:58.820Z,87.90
2017-12-31T08:05:26.264Z,88.10
2017-12-31T08:07:53.753Z,87.90
2017-12-31T08:10:21.197Z,87.60
2017-12-31T08:12:48.774Z,87.50
2017-12-31T08:15:16.629Z,87.70
2017-12-31T08:17:44.408Z,87.30
2017-12-31T08:20:12.647Z,87.90
2017-12-31T08:22:40.148Z,87.30
2017-12-31T08:25:08.712Z,87.90
2017-12-31T08:27:36.685Z,87.30
2017-12-31T08:30:04.810Z,87.40
2017-12-31T08:32:32.740Z,87.00
2017-12-31T08:35:01.197Z,88.00
2017-12-31T08:37:28.644Z,87.40
2017-12-31T08:39:56.225Z,88.00
2017-12-31T08:42:24.142Z,88.00
2017-12-31T08:44:52.614Z,88.10
2017-12-31T08:47:20.810Z,88.10
2017-12-31T08:49:48.265Z,88.50
2017-12-31T08:52:16.122Z,88.70
2017-12-31T08:54:43.565Z,88.50
2017-12-31T08:57:11.007Z,88.60
2017-12-31T08:59:38.467Z,88.60
2017-12-31T09:02:05.944Z,88.90
2017-12-31T09:04:33.749Z,88.70
2017-12-31T09:07:02.084Z,88.70
2017-12-31T09:09:29.529Z,88.20
2017-12-31T09:11:57.134Z,88.30
2017-12-31T09:14:25.167Z,88.10
2017-12-31T09:16:53.083Z,87.40
2017-12-31T09:19:20.535Z,87.10
2017-12-31T09:21:47.979Z,86.90
2017-12-31T09:24:15.489Z,86.00
2017-12-31T09:26:44.949Z,85.70
2017-12-31T09:29:13.649Z,85.20
2017-12-31T09:31:41.880Z,84.60
2017-12-31T09:34:09.462Z,84.00
2017-12-31T09:36:36.924Z,84.20
2017-12-31T09:39:04.988Z,83.60
2017-12-31T09:41:32.428Z,82.90
2017-12-31T09:43:59.956Z,83.30
2017-12-31T09:46:27.400Z,82.80
2017-12-31T09:48:56.200Z,82.00
2017-12-31T09:51:23.670Z,81.60
2017-12-31T09:53:51.146Z,81.60
2017-12-31T09:56:18.643Z,81.30
2017-12-31T09:58:46.099Z,81.30
2017-12-31T10:01:14.355Z,81.30
2017-12-31T10:03:43.357Z,81.20
2017-12-31T10:06:10.985Z,81.00
2017-12-31T10:08:38.426Z,80.50
2017-12-31T10:11:06.118Z,80.00
2017-12-31T10:13:33.593Z,80.60
2017-12-31T10:16:01.568Z,80.00
2017-12-31T10:18:29.048Z,79.90
2017-12-31T10:20:56.525Z,79.80
2017-12-31T10:23:24.037Z,79.20
2017-12-31T10:25:54.797Z,79.00
2017-12-31T10:28:23.436Z,79.10
2017-12-31T10:30:52.170Z,78.70
2017-12-31T10:33:22.230Z,78.60
2017-12-31T10:35:50.591Z,78.40
2017-12-31T10:38:18.096Z,78.50
2017-12-31T10:40:46.463Z,78.60
2017-12-31T10:43:14.786Z,78.60
2017-12-31T10:45:42.519Z,78.50
2017-12-31T10:48:11.305Z,78.10
2017-12-31T10:50:39.722Z,78.50
2017-12-31T10:53:07.195Z,77.80
2017-12-31T10:55:34.992Z,77.80
2017-12-31T10:58:02.464Z,77.80
2017-12-31T11:00:36.543Z,77.50
2017-12-31T11:03:04.082Z,77.50
2017-12-31T11:05:31.628Z,77.40
2017-12-31T11:07:59.440Z,77.30
2017-12-31T11:10:26.885Z,77.20
2017-12-31T11:12:54.347Z,76.80
2017-12-31T11:15:22.327Z,77.00
2017-12-31T11:17:50.651Z,76.30
2017-12-31T11:20:18.326Z,76.30
2017-12-31T11:22:45.780Z,76.60
2017-12-31T11:25:13.734Z,76.60
2017-12-31T11:27:41.764Z,76.60
2017-12-31T11:30:10.546Z,76.20
2017-12-31T11:32:38.154Z,76.10
2017-12-31T11:35:05.738Z,76.10
2017-12-31T11:37:33.227Z,76.20
2017-12-31T11:40:00.873Z,76.30
2017-12-31T11:42:29.460Z,76.40
2017-12-31T11:44:57.341Z,76.30
2017-12-31T11:47:25.657Z,76.30
2017-12-31T11:49:53.187Z,76.10
2017-12-31T11:52:20.701Z,76.00
2017-12-31T11:54:48.222Z,76.30
2017-12-31T11:57:15.767Z,76.20
2017-12-31T11:59:43.262Z,75.70
2017-12-31T12:02:10.819Z,75.20
2017-12-31T12:04:40.627Z,74.70
2017-12-31T12:07:09.128Z,74.50
2017-12-31T12:09:36.765Z,74.50
2017-12-31T12:12:04.971Z,74.30
2017-12-31T12:14:33.569Z,74.00
2017-12-31T12:17:02.148Z,73.50
2017-12-31T12:19:31.159Z,73.90
2017-12-31T12:21:59.444Z,74.00
2017-12-31T12:24:27.685Z,73.90
2017-12-31T12:26:55.609Z,73.90
2017-12-31T12:29:23.711Z,73.70
2017-12-31T12:31:51.302Z,73.70
2017-12-31T12:34:18.765Z,73.50
2017-12-31T12:36:46.272Z,72.70
2017-12-31T12:39:13.820Z,73.40
2017-12-31T12:41:41.271Z,73.00
2017-12-31T12:44:08.756Z,72.30
2017-12-31T12:46:36.203Z,72.70
2017-12-31T12:49:04.125Z,72.60
2017-12-31T12:51:32.340Z,71.70
2017-12-31T12:53:59.948Z,71.70
2017-12-31T12:56:27.433Z,70.90
2017-12-31T12:58:55.051Z,71.00
2017-12-31T13:01:22.593Z,70.60
2017-12-31T13:03:50.081Z,70.80
2017-12-31T13:06:17.529Z,71.00
2017-12-31T13:08:45.657Z,71.10
2017-12-31T13:11:13.731Z,70.90
2017-12-31T13:13:41.568Z,70.60
2017-12-31T13:16:10.337Z,70.40
2017-12-31T13:18:38.588Z,70.30
2017-12-31T13:21:06.092Z,70.30
2017-12-31T13:23:34.329Z,70.30
2017-12-31T13:26:02.014Z,70.20
2017-12-31T13:28:30.635Z,70.00
2017-12-31T13:30:58.655Z,70.00
2017-12-31T13:33:26.123Z,69.90
2017-12-31T13:35:54.495Z,69.60
2017-12-31T13:38:22.705Z,69.40
2017-12-31T13:40:50.273Z,69.30
2017-12-31T13:43:18.201Z,69.40
2017-12-31T13:45:45.678Z,69.50
2017-12-31T13:48:14.223Z,69.30
2017-12-31T13:50:41.684Z,69.30
2017-12-31T13:53:09.120Z,69.50
2017-12-31T13:55:36.622Z,69.50
2017-12-31T13:58:05.382Z,69.20
2017-12-31T14:00:32.913Z,69.20
2017-12-31T14:03:00.401Z,69.30
2017-12-31T14:05:27.899Z,69.50
2017-12-31T14:07:55.368Z,69.30
2017-12-31T14:10:22.828Z,69.00
2017-12-31T14:12:50.719Z,69.10
2017-12-31T14:15:18.502Z,68.90
2017-12-31T14:17:46.754Z,68.60
2017-12-31T14:20:14.242Z,68.50
2017-12-31T14:22:42.518Z,68.30
2017-12-31T14:25:11.016Z,68.00
2017-12-31T14:27:38.480Z,68.00
2017-12-31T14:30:07.196Z,67.40
2017-12-31T14:32:34.661Z,67.30
2017-12-31T14:35:02.154Z,67.10
2017-12-31T14:37:30.422Z,67.30
2017-12-31T14:39:57.887Z,66.80
2017-12-31T14:42:25.365Z,66.50
2017-12-31T14:44:53.812Z,66.60
2017-12-31T14:47:21.785Z,66.60
2017-12-31T14:49:49.248Z,66.90
2017-12-31T14:52:18.032Z,67.20
2017-12-31T14:54:45.481Z,67.20
2017-12-31T14:57:13.544Z,67.50
2017-12-31T14:59:40.987Z,67.40
2017-12-31T15:02:08.660Z,67.70
2017-12-31T15:04:36.138Z,67.80
2017-12-31T15:07:03.589Z,67.60
2017-12-31T15:09:31.095Z,67.50
2017-12-31T15:11:59.559Z,67.20
2017-12-31T15:14:28.070Z,67.80
2017-12-31T15:16:55.595Z,68.20
2017-12-31T15:19:23.908Z,68.70
2017-12-31T15:21:51.376Z,68.70
2017-12-31T15:24:19.085Z,69.30
2017-12-31T15:26:47.621Z,70.10
2017-12-31T15:29:18.923Z,70.00
2017-12-31T15:31:47.327Z,70.20
2017-12-31T15:34:15.370Z,70.30
2017-12-31T15:36:42.886Z,70.10
2017-12-31T15:39:10.361Z,70.00
2017-12-31T15:41:39.103Z,70.10
2017-12-31T15:44:07.223Z,70.20
2017-12-31T15:46:35.465Z,71.10
2017-12-31T15:49:03.754Z,71.00
2017-12-31T15:51:31.209Z,71.70
2017-12-31T15:53:58.707Z,72.00
2017-12-31T15:56:26.183Z,72.50
2017-12-31T15:58:53.666Z,73.00
2017-12-31T16:01:21.145Z,73.40
2017-12-31T16:03:48.915Z,73.80
2017-12-31T16:06:16.382Z,74.00
2017-12-31T16:08:44.645Z,74.80
2017-12-31T16:11:12.740Z,74.80
2017-12-31T16:13:41.151Z,75.80
2017-12-31T16:16:08.981Z,75.80
2017-12-31T16:18:36.510Z,76.40
2017-12-31T16:21:04.091Z,77.20
2017-12-31T16:23:32.383Z,78.70
2017-12-31T16:26:00.268Z,78.60
2017-12-31T16:28:28.618Z,79.50
2017-12-31T16:30:57.360Z,80.20
2017-12-31T16:33:24.834Z,80.20
2017-12-31T16:35:52.936Z,80.20
2017-12-31T16:38:20.421Z,81.00
2017-12-31T16:40:48.520Z,81.00
2017-12-31T16:43:16.000Z,81.00
2017-12-31T16:45:44.488Z,81.10
2017-12-31T16:48:13.104Z,81.50
2017-12-31T16:50:40.610Z,81.30
2017-12-31T16:53:08.085Z,81.40
2017-12-31T16:55:36.336Z,81.90
2017-12-31T16:58:04.008Z,81.90
2017-12-31T17:00:31.469Z,82.00
2017-12-31T17:02:59.948Z,83.30
2017-12-31T17:05:27.422Z,82.50
2017-12-31T17:07:55.685Z,83.00
2017-12-31T17:10:23.850Z,83.00
2017-12-31T17:12:51.332Z,83.20
2017-12-31T17:15:20.010Z,83.40
2017-12-31T17:17:48.299Z,83.30
2017-12-31T17:20:15.757Z,83.20
2017-12-31T17:22:43.251Z,83.40
2017-12-31T17:25:11.352Z,83.90
2017-12-31T17:27:39.627Z,84.20
2017-12-31T17:30:07.496Z,84.20
2017-12-31T17:32:35.583Z,84.20
2017-12-31T17:35:03.811Z,84.20
2017-12-31T17:37:31.349Z,84.10
2017-12-31T17:39:58.847Z,84.10
2017-12-31T17:42:26.903Z,84.10
2017-12-31T17:44:54.397Z,84.30
2017-12-31T17:47:23.195Z,84.40
2017-12-31T17:49:52.070Z,84.60
2017-12-31T17:52:19.501Z,84.60
2017-12-31T17:54:46.954Z,84.60
2017-12-31T17:57:14.445Z,84.50
2017-12-31T17:59:42.676Z,84.40
2017-12-31T18:02:10.148Z,84.40
2017-12-31T18:04:37.588Z,84.40
2017-12-31T18:07:05.264Z,84.60
2017-12-31T18:09:33.433Z,84.90
2017-12-31T18:12:00.880Z,85.10
2017-12-31T18:14:28.971Z,85.20
2017-12-31T18:16:56.418Z,85.20
2017-12-31T18:19:23.893Z,85.40
2017-12-31T18:21:53.410Z,86.00
2017-12-31T18:24:21.665Z,85.70
2017-12-31T18:26:49.595Z,85.60
2017-12-31T18:29:18.411Z,85.60
2017-12-31T18:31:46.297Z,85.60
2017-12-31T18:34:14.615Z,85.70
2017-12-31T18:36:42.071Z,85.50
2017-12-31T18:39:09.661Z,85.60
2017-12-31T18:41:37.107Z,85.30
2017-12-31T18:44:04.851Z,85.40
2017-12-31T18:46:32.294Z,85.50
2017-12-31T18:49:00.349Z,85.90
2017-12-31T18:51:28.562Z,86.10
2017-12-31T18:53:56.063Z,86.10
2017-12-31T18:56:23.504Z,85.90
2017-12-31T18:58:51.749Z,85.20
2017-12-31T19:01:19.259Z,85.20
2017-12-31T19:03:47.545Z,85.00
2017-12-31T19:06:15.822Z,84.80
2017-12-31T19:08:44.534Z,85.00
2017-12-31T19:11:12.016Z,85.00
2017-12-31T19:13:39.464Z,85.00
2017-12-31T19:16:07.239Z,84.90
2017-12-31T19:18:34.715Z,84.70
2017-12-31T19:21:02.172Z,84.90
2017-12-31T19:23:29.682Z,85.00
2017-12-31T19:25:57.579Z,84.80
2017-12-31T19:28:25.040Z,84.90
2017-12-31T19:30:53.049Z,84.60
2017-12-31T19:33:21.295Z,84.20
2017-12-31T19:35:48.773Z,84.20
2017-12-31T19:38:16.985Z,84.20
2017-12-31T19:40:44.482Z,84.20
2017-12-31T19:43:12.243Z,84.30
2017-12-31T19:45:39.744Z,84.50
2017-12-31T19:48:07.682Z,84.80
2017-12-31T19:50:35.535Z,84.20
2017-12-31T19:53:02.992Z,83.90
2017-12-31T19:55:30.458Z,83.60
2017-12-31T19:57:57.912Z,82.50
2017-12-31T20:00:25.524Z,83.50
2017-12-31T20:02:52.960Z,82.80
2017-12-31T20:05:20.682Z,82.30
2017-12-31T20:07:48.132Z,81.60
2017-12-31T20:10:16.004Z,82.20
2017-12-31T20:12:43.452Z,82.70
2017-12-31T20:15:11.277Z,82.80
2017-12-31T20:17:38.725Z,83.30
2017-12-31T20:20:06.190Z,83.30
2017-12-31T20:22:33.639Z,83.30
2017-12-31T20:25:01.219Z,83.40
2017-12-31T20:27:28.673Z,83.60
2017-12-31T20:29:56.524Z,83.90
2017-12-31T20:32:24.240Z,84.40
2017-12-31T20:34:52.457Z,84.70
2017-12-31T20:37:19.932Z,84.70
2017-12-31T20:39:47.387Z,84.90
2017-12-31T20:42:14.943Z,84.40
2017-12-31T20:44:42.400Z,85.30
2017-12-31T20:47:10.715Z,84.50
2017-12-31T20:49:38.148Z,84.90
2017-12-31T20:52:06.187Z,84.80
2017-12-31T20:54:33.630Z,85.00
2017-12-31T20:57:02.000Z,84.50
2017-12-31T20:59:30.876Z,84.60
2017-12-31T21:01:58.357Z,84.60
2017-12-31T21:04:26.597Z,84.70
2017-12-31T21:06:54.055Z,84.70
2017-12-31T21:09:22.025Z,84.90
2017-12-31T21:11:49.501Z,84.90
2017-12-31T21:14:18.363Z,85.20
2017-12-31T21:16:46.255Z,85.20
2017-12-31T21:19:13.699Z,85.40
2017-12-31T21:21:41.165Z,84.90
2017-12-31T21:24:08.603Z,84.80
2017-12-31T21:26:36.370Z,84.60
2017-12-31T21:29:03.856Z,84.70
2017-12-31T21:31:32.432Z,84.10
2017-12-31T21:34:00.645Z,84.20
2017-12-31T21:36:28.112Z,84.20
2017-12-31T21:41:37.700Z,84.40
2017-12-31T21:44:05.235Z,84.70
2017-12-31T21:46:32.680Z,84.50
2017-12-31T21:49:00.635Z,84.10
2017-12-31T21:51:28.096Z,84.20
2017-12-31T21:53:55.547Z,83.90
2017-12-31T21:56:23.365Z,84.00
2017-12-31T21:58:50.806Z,83.90
2017-12-31T22:01:18.292Z,83.90
2017-12-31T22:03:46.602Z,83.00
2017-12-31T22:06:14.166Z,83.40
2017-12-31T22:08:41.614Z,82.80
2017-12-31T22:11:09.409Z,82.90
2017-12-31T22:13:36.898Z,83.00
2017-12-31T22:16:04.662Z,83.20
2017-12-31T22:18:33.628Z,82.80
2017-12-31T22:21:01.076Z,82.70
2017-12-31T22:23:28.536Z,82.20
2017-12-31T22:25:56.336Z,82.10
2017-12-31T22:28:24.576Z,81.90
2017-12-31T22:30:52.576Z,81.70
2017-12-31T22:33:20.741Z,81.30
2017-12-31T22:35:48.604Z,81.10
2017-12-31T22:38:16.059Z,81.30
2017-12-31T22:40:43.826Z,81.30
2017-12-31T22:43:11.268Z,81.30
2017-12-31T22:45:38.736Z,80.80
2017-12-31T22:48:06.613Z,81.50
2017-12-31T22:50:34.659Z,81.80
2017-12-31T22:53:02.126Z,82.00
2017-12-31T22:55:29.970Z,81.90
2017-12-31T22:57:57.569Z,81.90
2017-12-31T23:00:25.235Z,82.70
2017-12-31T23:02:53.904Z,82.50
2017-12-31T23:05:21.382Z,82.40
2017-12-31T23:07:49.632Z,82.00
2017-12-31T23:10:18.892Z,81.60
2017-12-31T23:12:46.339Z,81.60
2017-12-31T23:15:14.146Z,80.90
2017-12-31T23:17:41.632Z,80.50
2017-12-31T23:20:09.853Z,80.50
2017-12-31T23:22:37.356Z,80.50
2017-12-31T23:25:05.524Z,79.70
2017-12-31T23:27:33.732Z,79.70
2017-12-31T23:30:02.982Z,78.90
2017-12-31T23:32:30.953Z,79.40
2017-12-31T23:34:58.456Z,79.60
2017-12-31T23:37:26.293Z,78.30
2017-12-31T23:39:55.362Z,78.00
2017-12-31T23:42:22.805Z,78.00
2017-12-31T23:44:50.388Z,77.80
2017-12-31T23:47:18.272Z,77.90
2017-12-31T23:49:46.507Z,76.80
2017-12-31T23:52:14.268Z,76.70
2017-12-31T23:54:41.721Z,76.40
2017-12-31T23:57:09.188Z,76.40
2017-12-31T23:59:36.817Z,75.60
